Terminal Aerodrome Forecast
Issued by NWS Tampa Bay Area, FL

Home | Current Version | Previous Version | Text Only | Print | Product List | Glossary On
Versions: 1 2 3 4 5 6 7 8 9 10 11 12 13 14 15 16 17 18 19 20 21 22 23 24 25
000
FTUS42 KTBW 302338 CCB
TAFFMY
TAF COR
KFMY 302338Z 3100/3124 VRB06KT 2SM TSRA FEW015 BKN020CB
     FM310015 13009KT P6SM VCTS SCT030CB BKN250
     FM310100 10006KT P6SM VCSH SCT020 BKN050
     FM310600 VRB05KT P6SM FEW010 SCT020 BKN100
     FM311400 19009KT P6SM VCTS SCT025CB BKN250=

USA.gov is the U.S. government's official web portal to all federal, state and local government web resources and services.